createdAt,value
2018-07-19T00:00:17.087Z,17.80
2018-07-19T00:02:45.499Z,17.70
2018-07-19T00:05:13.090Z,17.70
2018-07-19T00:07:40.663Z,17.60
2018-07-19T00:10:08.286Z,17.50
2018-07-19T00:12:35.865Z,17.70
2018-07-19T00:15:03.433Z,17.60
2018-07-19T00:17:31.054Z,17.60
2018-07-19T00:19:58.633Z,17.40
2018-07-19T00:22:26.211Z,17.50
2018-07-19T00:24:53.829Z,17.40
2018-07-19T00:27:22.162Z,17.20
2018-07-19T00:29:49.730Z,17.20
2018-07-19T00:32:17.364Z,17.10
2018-07-19T00:34:44.939Z,17.20
2018-07-19T00:37:12.502Z,17.30
2018-07-19T00:39:40.111Z,17.30
2018-07-19T00:42:08.450Z,17.20
2018-07-19T00:44:36.032Z,17.20
2018-07-19T00:47:04.413Z,17.20
2018-07-19T00:49:31.976Z,17.20
2018-07-19T00:51:59.540Z,17.20
2018-07-19T00:54:27.938Z,17.00
2018-07-19T00:56:55.511Z,17.00
2018-07-19T00:59:23.108Z,16.90
2018-07-19T01:01:50.754Z,16.80
2018-07-19T01:04:18.333Z,16.70
2018-07-19T01:06:45.896Z,16.60
2018-07-19T01:09:13.495Z,16.50
2018-07-19T01:11:41.837Z,16.50
2018-07-19T01:14:09.403Z,16.50
2018-07-19T01:16:37.012Z,16.40
2018-07-19T01:19:04.588Z,16.30
2018-07-19T01:21:32.157Z,16.30
2018-07-19T01:23:59.759Z,16.20
2018-07-19T01:26:27.338Z,16.10
2018-07-19T01:28:55.668Z,16.10
2018-07-19T01:31:23.279Z,16.10
2018-07-19T01:33:50.850Z,16.10
2018-07-19T01:36:18.418Z,16.00
2018-07-19T01:38:46.048Z,16.00
2018-07-19T01:41:13.631Z,15.90
2018-07-19T01:43:41.973Z,16.00
2018-07-19T01:46:09.585Z,15.90
2018-07-19T01:48:37.156Z,15.90
2018-07-19T01:51:04.734Z,15.90
2018-07-19T01:53:32.330Z,15.80
2018-07-19T01:55:59.897Z,15.80
2018-07-19T01:58:27.468Z,15.70
2018-07-19T02:00:56.640Z,15.70
2018-07-19T02:03:24.216Z,15.60
2018-07-19T02:05:51.796Z,15.60
2018-07-19T02:08:20.200Z,15.60
2018-07-19T02:10:47.743Z,15.60
2018-07-19T02:13:16.086Z,15.50
2018-07-19T02:15:43.695Z,15.50
2018-07-19T02:18:11.265Z,15.50
2018-07-19T02:20:38.837Z,15.40
2018-07-19T02:23:06.465Z,15.40
2018-07-19T02:25:34.798Z,15.40
2018-07-19T02:28:02.369Z,15.40
2018-07-19T02:30:29.987Z,15.40
2018-07-19T02:32:57.562Z,15.40
2018-07-19T02:35:25.143Z,15.40
2018-07-19T02:37:52.745Z,15.30
2018-07-19T02:40:21.087Z,15.30
2018-07-19T02:42:48.652Z,15.30
2018-07-19T02:45:16.668Z,15.30
2018-07-19T02:47:45.001Z,15.30
2018-07-19T02:50:12.566Z,15.30
2018-07-19T02:52:40.175Z,15.30
2018-07-19T02:55:08.503Z,15.10
2018-07-19T02:57:36.113Z,15.10
2018-07-19T03:00:04.481Z,15.10
2018-07-19T03:02:32.050Z,15.00
2018-07-19T03:05:00.382Z,15.00
2018-07-19T03:07:28.021Z,15.00
2018-07-19T03:09:55.594Z,15.10
2018-07-19T03:12:23.168Z,15.10
2018-07-19T03:14:50.782Z,15.00
2018-07-19T03:17:19.158Z,15.00
2018-07-19T03:19:47.485Z,14.90
2018-07-19T03:22:15.133Z,14.90
2018-07-19T03:24:42.712Z,14.90
2018-07-19T03:27:10.281Z,14.80
2018-07-19T03:29:37.946Z,14.80
2018-07-19T03:32:05.522Z,14.80
2018-07-19T03:34:33.096Z,14.70
2018-07-19T03:37:00.719Z,14.90
2018-07-19T03:39:28.293Z,14.80
2018-07-19T03:41:55.866Z,14.70
2018-07-19T03:44:23.482Z,14.70
2018-07-19T03:46:51.101Z,14.60
2018-07-19T03:49:18.739Z,14.70
2018-07-19T03:51:46.690Z,14.70
2018-07-19T03:54:14.263Z,14.60
2018-07-19T03:56:41.840Z,14.50
2018-07-19T03:59:09.448Z,14.50
2018-07-19T04:01:37.012Z,14.40
2018-07-19T04:07:43.219Z,14.30
2018-07-19T04:10:10.773Z,14.30
2018-07-19T04:12:38.328Z,14.30
2018-07-19T04:15:05.905Z,14.30
2018-07-19T04:17:33.466Z,14.30
2018-07-19T04:20:01.028Z,14.30
2018-07-19T04:22:28.624Z,14.30
2018-07-19T04:24:56.184Z,14.30
2018-07-19T04:27:23.738Z,14.30
2018-07-19T04:29:51.347Z,14.50
2018-07-19T04:32:18.978Z,14.50
2018-07-19T04:34:46.473Z,14.50
2018-07-19T04:37:14.067Z,14.60
2018-07-19T04:39:41.626Z,14.60
2018-07-19T04:42:09.199Z,14.50
2018-07-19T04:44:36.795Z,14.50
2018-07-19T04:47:05.166Z,14.50
2018-07-19T04:49:33.481Z,14.50
2018-07-19T04:52:01.077Z,14.50
2018-07-19T04:54:28.670Z,14.50
2018-07-19T04:56:56.200Z,14.50
2018-07-19T04:59:23.786Z,14.60
2018-07-19T05:01:51.464Z,14.60
2018-07-19T05:04:18.891Z,14.70
2018-07-19T05:06:46.500Z,14.80
2018-07-19T05:09:15.172Z,14.90
2018-07-19T05:11:43.514Z,14.90
2018-07-19T05:14:11.221Z,14.90
2018-07-19T05:16:38.709Z,14.90
2018-07-19T05:19:06.257Z,14.90
2018-07-19T05:21:35.190Z,14.90
2018-07-19T05:24:02.743Z,14.90
2018-07-19T05:26:30.305Z,15.00
2018-07-19T05:28:57.934Z,15.20
2018-07-19T05:31:25.483Z,15.30
2018-07-19T05:33:53.036Z,15.30
2018-07-19T05:36:21.417Z,15.40
2018-07-19T05:38:49.734Z,15.50
2018-07-19T05:41:17.701Z,15.50
2018-07-19T05:43:45.300Z,15.60
2018-07-19T05:46:12.856Z,15.70
2018-07-19T05:48:40.407Z,15.70
2018-07-19T05:51:07.998Z,15.80
2018-07-19T05:53:36.318Z,16.00
2018-07-19T05:56:03.865Z,16.00
2018-07-19T05:58:31.471Z,16.00
2018-07-19T06:00:59.019Z,16.10
2018-07-19T06:03:26.563Z,16.20
2018-07-19T06:05:54.170Z,16.30
2018-07-19T06:08:21.721Z,16.40
2018-07-19T06:10:49.307Z,16.50
2018-07-19T06:13:17.689Z,16.80
2018-07-19T06:15:46.080Z,16.90
2018-07-19T06:18:13.620Z,16.90
2018-07-19T06:20:41.991Z,17.30
2018-07-19T06:23:09.545Z,17.30
2018-07-19T06:25:37.099Z,17.40
2018-07-19T06:28:04.704Z,17.50
2018-07-19T06:30:32.253Z,17.50
2018-07-19T06:33:00.568Z,17.60
2018-07-19T06:35:28.648Z,17.60
2018-07-19T06:37:59.461Z,17.70
2018-07-19T06:40:27.665Z,17.80
2018-07-19T06:42:55.347Z,17.80
2018-07-19T06:45:22.904Z,17.90
2018-07-19T06:47:50.470Z,18.00
2018-07-19T06:50:18.099Z,18.10
2018-07-19T06:52:45.658Z,18.30
2018-07-19T06:55:13.208Z,18.50
2018-07-19T06:57:41.720Z,18.60
2018-07-19T07:00:09.292Z,18.60
2018-07-19T07:02:36.859Z,18.70
2018-07-19T07:05:04.517Z,18.80
2018-07-19T07:07:32.084Z,18.90
2018-07-19T07:09:59.646Z,19.00
2018-07-19T07:12:27.297Z,19.10
2018-07-19T07:14:54.832Z,19.30
2018-07-19T07:17:22.390Z,19.60
2018-07-19T07:19:50.040Z,19.70
2018-07-19T07:22:17.582Z,19.70
2018-07-19T07:24:45.902Z,19.90
2018-07-19T07:27:13.862Z,19.90
2018-07-19T07:29:41.479Z,19.90
2018-07-19T07:32:09.022Z,20.00
2018-07-19T07:34:36.662Z,20.10
2018-07-19T07:37:04.278Z,20.20
2018-07-19T07:39:31.818Z,20.40
2018-07-19T07:41:59.882Z,20.50
2018-07-19T07:44:27.470Z,20.60
2018-07-19T07:46:55.032Z,20.70
2018-07-19T07:49:24.094Z,20.90
2018-07-19T07:51:51.648Z,20.80
2018-07-19T07:54:19.269Z,21.00
2018-07-19T07:56:46.849Z,21.10
2018-07-19T07:59:14.436Z,21.20
2018-07-19T08:01:41.991Z,21.30
2018-07-19T08:04:09.742Z,21.40
2018-07-19T08:06:37.338Z,21.60
2018-07-19T08:09:04.858Z,21.70
2018-07-19T08:11:32.552Z,21.80
2018-07-19T08:14:00.168Z,21.90
2018-07-19T08:16:27.743Z,22.00
2018-07-19T08:18:55.351Z,22.20
2018-07-19T08:21:22.946Z,22.30
2018-07-19T08:23:50.521Z,22.40
2018-07-19T08:26:18.734Z,22.50
2018-07-19T08:28:46.323Z,22.60
2018-07-19T08:31:13.922Z,22.70
2018-07-19T08:33:42.195Z,22.80
2018-07-19T08:36:09.822Z,22.90
2018-07-19T08:38:37.365Z,23.20
2018-07-19T08:41:07.026Z,23.30
2018-07-19T08:43:33.488Z,23.40
2018-07-19T08:46:01.088Z,23.50
2018-07-19T08:48:29.057Z,23.50
2018-07-19T08:50:56.686Z,23.70
2018-07-19T08:53:24.238Z,23.80
2018-07-19T08:55:53.091Z,23.90
2018-07-19T08:58:20.259Z,24.00
2018-07-19T09:00:47.773Z,23.90
2018-07-19T09:03:26.733Z,24.10
2018-07-19T09:09:03.651Z,24.20
2018-07-19T09:11:42.862Z,24.30
2018-07-19T09:17:53.788Z,24.40
2018-07-19T09:20:23.817Z,24.50
2018-07-19T09:22:51.383Z,24.80
2018-07-19T09:25:18.994Z,25.00
2018-07-19T09:27:46.621Z,25.20
2018-07-19T09:30:14.178Z,25.20
2018-07-19T09:32:41.841Z,25.20
2018-07-19T09:35:10.131Z,25.30
2018-07-19T09:37:38.615Z,25.30
2018-07-19T09:40:06.260Z,25.30
2018-07-19T09:42:33.830Z,25.40
2018-07-19T09:45:01.401Z,25.50
2018-07-19T09:47:29.005Z,25.60
2018-07-19T09:49:57.330Z,25.70
2018-07-19T09:52:24.900Z,25.70
2018-07-19T09:54:52.517Z,25.80
2018-07-19T09:57:20.070Z,25.90
2018-07-19T09:59:48.413Z,26.20
2018-07-19T10:02:16.103Z,26.10
2018-07-19T10:07:11.312Z,26.30
2018-07-19T10:09:39.256Z,26.50
2018-07-19T10:12:06.839Z,26.50
2018-07-19T10:14:34.432Z,26.50
2018-07-19T10:17:21.344Z,26.60
2018-07-19T10:19:53.314Z,26.60
2018-07-19T10:22:42.615Z,26.60
2018-07-19T10:24:59.775Z,26.70
2018-07-19T10:27:28.745Z,26.70
2018-07-19T10:29:55.051Z,26.70
2018-07-19T10:32:22.722Z,26.70
2018-07-19T10:34:52.904Z,26.70
2018-07-19T10:37:21.232Z,26.80
2018-07-19T10:39:48.805Z,26.80
2018-07-19T10:42:16.410Z,26.90
2018-07-19T10:44:43.973Z,26.80
2018-07-19T10:47:12.294Z,27.00
2018-07-19T10:49:39.948Z,27.00
2018-07-19T10:52:07.510Z,27.10
2018-07-19T10:54:35.066Z,27.10
2018-07-19T10:57:02.663Z,27.20
2018-07-19T10:59:30.213Z,27.20
2018-07-19T11:01:57.777Z,27.30
2018-07-19T11:04:25.411Z,27.30
2018-07-19T11:06:52.968Z,27.30
2018-07-19T11:09:20.561Z,27.50
2018-07-19T11:11:49.025Z,27.50
2018-07-19T11:14:16.583Z,27.50
2018-07-19T11:16:44.164Z,27.40
2018-07-19T11:19:11.763Z,27.40
2018-07-19T11:21:40.084Z,27.50
2018-07-19T11:24:07.634Z,27.40
2018-07-19T11:26:35.275Z,27.50
2018-07-19T11:29:02.824Z,27.60
2018-07-19T11:31:31.141Z,27.80
2018-07-19T11:33:59.245Z,27.80
2018-07-19T11:36:26.833Z,27.90
2018-07-19T11:38:55.169Z,28.00
2018-07-19T11:41:22.774Z,27.90
2018-07-19T11:43:51.088Z,27.90
2018-07-19T11:46:18.657Z,27.90
2018-07-19T11:48:46.255Z,27.80
2018-07-19T11:51:13.877Z,27.90
2018-07-19T11:53:41.477Z,27.80
2018-07-19T11:56:09.421Z,28.00
2018-07-19T11:58:36.979Z,28.10
2018-07-19T12:01:04.518Z,28.10
2018-07-19T12:03:32.109Z,28.20
2018-07-19T12:06:00.926Z,28.20
2018-07-19T12:08:28.441Z,28.20
2018-07-19T12:10:56.055Z,28.30
2018-07-19T12:13:23.621Z,28.40
2018-07-19T12:15:51.935Z,28.50
2018-07-19T12:18:19.555Z,28.40
2018-07-19T12:20:47.111Z,28.50
2018-07-19T12:23:14.752Z,28.50
2018-07-19T12:25:42.805Z,28.50
2018-07-19T12:28:10.356Z,28.60
2018-07-19T12:30:37.917Z,28.60
2018-07-19T12:33:05.977Z,28.70
2018-07-19T12:35:33.521Z,28.70
2018-07-19T12:38:01.842Z,28.80
2018-07-19T12:40:29.662Z,28.80
2018-07-19T12:42:57.136Z,28.80
2018-07-19T12:45:24.692Z,28.80
2018-07-19T12:47:52.290Z,28.90
2018-07-19T12:50:19.833Z,29.00
2018-07-19T12:52:47.387Z,29.10
2018-07-19T12:55:15.120Z,29.20
2018-07-19T12:57:42.668Z,29.30
2018-07-19T13:00:10.275Z,29.40
2018-07-19T13:02:38.618Z,29.50
2018-07-19T13:05:06.181Z,29.40
2018-07-19T13:07:33.999Z,29.50
2018-07-19T13:10:01.534Z,29.50
2018-07-19T13:12:29.090Z,29.60
2018-07-19T13:14:56.642Z,29.70
2018-07-19T13:17:24.980Z,29.80
2018-07-19T13:19:52.547Z,29.90
2018-07-19T13:22:20.100Z,30.00
2018-07-19T13:24:47.716Z,30.10
2018-07-19T13:27:15.282Z,30.20
2018-07-19T13:29:42.836Z,30.30
2018-07-19T13:32:10.516Z,30.40
2018-07-19T13:34:38.094Z,30.40
2018-07-19T13:37:05.651Z,30.60
2018-07-19T13:39:33.255Z,30.70
2018-07-19T13:42:00.865Z,30.70
2018-07-19T13:44:29.144Z,30.90
2018-07-19T13:46:56.740Z,30.80
2018-07-19T13:49:24.303Z,31.00
2018-07-19T13:51:51.863Z,31.00
2018-07-19T13:54:19.536Z,30.90
2018-07-19T13:56:47.088Z,31.00
2018-07-19T13:59:14.695Z,30.90
2018-07-19T14:01:42.253Z,30.80
2018-07-19T14:04:09.805Z,30.70
2018-07-19T14:06:38.135Z,30.70
2018-07-19T14:09:05.728Z,30.70
2018-07-19T14:11:33.284Z,30.70
2018-07-19T14:14:00.836Z,30.70
2018-07-19T14:16:28.515Z,30.70
2018-07-19T14:18:56.067Z,30.70
2018-07-19T14:21:23.630Z,30.70
2018-07-19T14:23:51.243Z,30.90
2018-07-19T14:26:18.833Z,31.00
2018-07-19T14:28:46.400Z,31.30
2018-07-19T14:31:14.533Z,31.30
2018-07-19T14:33:42.105Z,31.50
2018-07-19T14:36:09.654Z,31.60
2018-07-19T14:38:37.266Z,31.60
2018-07-19T14:41:04.843Z,31.50
2018-07-19T14:43:33.166Z,31.70
2018-07-19T14:46:00.759Z,31.60
2018-07-19T14:48:28.363Z,31.60
2018-07-19T14:50:56.705Z,31.80
2018-07-19T14:53:24.323Z,31.70
2018-07-19T14:55:51.909Z,31.70
2018-07-19T14:58:19.485Z,31.70
2018-07-19T15:00:47.097Z,31.80
2018-07-19T15:03:14.669Z,31.80
2018-07-19T15:05:42.244Z,31.80
2018-07-19T15:08:09.855Z,31.80
2018-07-19T15:10:37.452Z,31.90
2018-07-19T15:13:05.005Z,31.90
2018-07-19T15:15:32.627Z,31.90
2018-07-19T15:18:00.238Z,31.90
2018-07-19T15:20:28.548Z,31.90
2018-07-19T15:22:56.164Z,31.90
2018-07-19T15:25:23.742Z,32.00
2018-07-19T15:27:51.374Z,32.10
2018-07-19T15:30:19.017Z,32.30
2018-07-19T15:32:46.586Z,32.50
2018-07-19T15:35:14.154Z,32.70
2018-07-19T15:37:42.573Z,33.20
2018-07-19T15:40:10.165Z,33.10
2018-07-19T15:42:37.863Z,33.40
2018-07-19T15:45:06.264Z,33.80
2018-07-19T15:47:36.254Z,33.80
2018-07-19T15:50:04.206Z,33.90
2018-07-19T15:52:32.872Z,34.00
2018-07-19T15:55:04.206Z,34.00
2018-07-19T15:57:31.763Z,34.00
2018-07-19T15:59:59.513Z,34.00
2018-07-19T16:02:27.063Z,34.00
2018-07-19T16:04:55.389Z,33.90
2018-07-19T16:07:23.352Z,33.90
2018-07-19T16:09:50.901Z,33.80
2018-07-19T16:12:18.453Z,33.70
2018-07-19T16:14:46.051Z,33.60
2018-07-19T16:17:13.606Z,33.50
2018-07-19T16:19:41.167Z,33.50
2018-07-19T16:22:08.773Z,33.50
2018-07-19T16:24:37.089Z,33.50
2018-07-19T16:27:04.637Z,33.50
2018-07-19T16:29:32.635Z,33.60
2018-07-19T16:32:00.198Z,33.60
2018-07-19T16:34:27.753Z,33.70
2018-07-19T16:36:55.395Z,33.70
2018-07-19T16:39:22.949Z,33.60
2018-07-19T16:41:50.502Z,33.70
2018-07-19T16:44:18.504Z,33.70
2018-07-19T16:46:46.076Z,33.70
2018-07-19T16:49:13.627Z,33.80
2018-07-19T16:51:41.225Z,33.80
2018-07-19T16:54:08.777Z,33.90
2018-07-19T16:56:36.338Z,33.90
2018-07-19T16:59:04.278Z,34.00
2018-07-19T17:01:31.827Z,34.20
2018-07-19T17:03:59.378Z,34.10
2018-07-19T17:06:26.974Z,34.10
2018-07-19T17:08:54.520Z,34.10
2018-07-19T17:11:22.070Z,34.10
2018-07-19T17:13:49.700Z,34.10
2018-07-19T17:16:18.019Z,34.10
2018-07-19T17:18:45.570Z,34.10
2018-07-19T17:21:13.177Z,34.10
2018-07-19T17:23:40.727Z,33.90
2018-07-19T17:26:08.284Z,33.80
2018-07-19T17:28:35.921Z,33.90
2018-07-19T17:31:03.469Z,33.90
2018-07-19T17:33:31.012Z,34.00
2018-07-19T17:35:59.405Z,33.70
2018-07-19T17:38:26.952Z,33.70
2018-07-19T17:40:54.506Z,33.60
2018-07-19T17:43:22.868Z,33.20
2018-07-19T17:45:50.413Z,33.20
2018-07-19T17:48:17.961Z,33.00
2018-07-19T17:50:45.581Z,32.80
2018-07-19T17:53:13.145Z,32.60
2018-07-19T17:55:40.699Z,32.30
2018-07-19T17:58:08.309Z,32.10
2018-07-19T18:00:35.869Z,31.90
2018-07-19T18:03:03.426Z,31.70
2018-07-19T18:05:31.021Z,31.50
2018-07-19T18:07:58.574Z,31.30
2018-07-19T18:10:26.131Z,31.20
2018-07-19T18:12:53.742Z,30.90
2018-07-19T18:15:21.294Z,31.00
2018-07-19T18:17:48.847Z,31.00
2018-07-19T18:20:17.259Z,30.90
2018-07-19T18:22:45.531Z,30.80
2018-07-19T18:25:13.079Z,30.70
2018-07-19T18:27:40.739Z,30.60
2018-07-19T18:30:08.284Z,30.40
2018-07-19T18:32:36.598Z,30.00
2018-07-19T18:35:04.200Z,30.00
2018-07-19T18:37:31.755Z,29.90
2018-07-19T18:39:59.314Z,29.70
2018-07-19T18:42:28.630Z,29.70
2018-07-19T18:44:56.183Z,29.70
2018-07-19T18:47:23.729Z,29.70
2018-07-19T18:49:51.365Z,29.50
2018-07-19T18:52:18.910Z,29.50
2018-07-19T18:54:46.459Z,29.30
2018-07-19T18:57:14.047Z,29.10
2018-07-19T18:59:41.605Z,28.90
2018-07-19T19:02:09.172Z,28.70
2018-07-19T19:04:36.763Z,28.50
2018-07-19T19:07:04.318Z,28.50
2018-07-19T19:09:31.870Z,28.30
2018-07-19T19:12:00.042Z,28.10
2018-07-19T19:14:27.595Z,27.90
2018-07-19T19:16:55.158Z,27.70
2018-07-19T19:19:22.777Z,27.50
2018-07-19T19:21:51.114Z,27.20
2018-07-19T19:24:18.645Z,27.20
2018-07-19T19:26:46.253Z,27.10
2018-07-19T19:29:13.804Z,26.90
2018-07-19T19:31:41.359Z,26.70
2018-07-19T19:34:09.511Z,26.80
2018-07-19T19:36:37.065Z,26.60
2018-07-19T19:39:04.627Z,26.70
2018-07-19T19:41:32.814Z,26.50
2018-07-19T19:44:00.362Z,26.30
2018-07-19T19:46:27.915Z,26.10
2018-07-19T19:48:55.514Z,25.90
2018-07-19T19:51:23.071Z,25.80
2018-07-19T19:53:50.629Z,25.70
2018-07-19T19:56:18.230Z,25.50
2018-07-19T19:58:45.821Z,25.40
2018-07-19T20:01:13.333Z,25.30
2018-07-19T20:03:40.940Z,25.20
2018-07-19T20:06:08.489Z,25.10
2018-07-19T20:08:36.051Z,25.10
2018-07-19T20:11:03.660Z,25.00
2018-07-19T20:13:31.234Z,24.90
2018-07-19T20:15:58.788Z,24.80
2018-07-19T20:18:26.387Z,24.60
2018-07-19T20:20:54.708Z,24.60
2018-07-19T20:23:22.614Z,24.50
2018-07-19T20:25:50.671Z,24.50
2018-07-19T20:28:18.239Z,24.40
2018-07-19T20:30:45.795Z,24.20
2018-07-19T20:33:13.746Z,24.30
2018-07-19T20:35:41.303Z,24.20
2018-07-19T20:38:08.858Z,24.00
2018-07-19T20:40:36.477Z,23.90
2018-07-19T20:43:04.101Z,23.80
2018-07-19T20:50:46.362Z,23.30
2018-07-19T20:53:13.951Z,23.20
2018-07-19T20:58:12.210Z,23.00
2018-07-19T21:00:44.782Z,23.00
2018-07-19T21:03:26.434Z,22.90
2018-07-19T21:11:16.648Z,22.70
2018-07-19T21:13:44.964Z,22.60
2018-07-19T21:16:12.531Z,22.60
2018-07-19T21:18:40.126Z,22.50
2018-07-19T21:21:07.678Z,22.40
2018-07-19T21:23:35.231Z,22.30
2018-07-19T21:26:02.880Z,22.20
2018-07-19T21:28:31.161Z,22.00
2018-07-19T21:30:58.715Z,21.90
2018-07-19T21:33:27.260Z,21.90
2018-07-19T21:35:54.812Z,21.80
2018-07-19T21:38:23.131Z,21.70
2018-07-19T21:40:50.725Z,21.70
2018-07-19T21:43:18.276Z,21.60
2018-07-19T21:45:45.832Z,21.60
2018-07-19T21:48:13.472Z,21.70
2018-07-19T21:50:41.027Z,21.60
2018-07-19T21:53:08.584Z,21.60
2018-07-19T21:55:36.205Z,21.50
2018-07-19T21:58:03.759Z,21.40
2018-07-19T22:00:31.306Z,21.30
2018-07-19T22:02:59.456Z,21.20
2018-07-19T22:05:27.012Z,21.10
2018-07-19T22:07:54.559Z,21.00
2018-07-19T22:10:22.297Z,20.90
2018-07-19T22:12:50.635Z,20.80
2018-07-19T22:15:18.175Z,20.80
2018-07-19T22:17:45.786Z,20.70
2018-07-19T22:20:13.313Z,20.70
2018-07-19T22:22:40.871Z,20.60
2018-07-19T22:25:08.506Z,20.60
2018-07-19T22:27:36.057Z,20.50
2018-07-19T22:30:03.613Z,20.50
2018-07-19T22:32:31.969Z,20.40
2018-07-19T22:34:59.521Z,20.30
2018-07-19T22:37:27.075Z,20.20
2018-07-19T22:39:54.662Z,20.10
2018-07-19T22:42:22.981Z,20.00
2018-07-19T22:44:50.530Z,20.00
2018-07-19T22:47:18.113Z,19.90
2018-07-19T22:49:45.662Z,19.80
2018-07-19T22:52:13.214Z,19.80
2018-07-19T22:54:40.797Z,19.80
2018-07-19T22:57:08.345Z,19.70
2018-07-19T22:59:35.892Z,19.70
2018-07-19T23:02:03.513Z,19.60
2018-07-19T23:04:31.024Z,19.60
2018-07-19T23:06:58.568Z,19.50
2018-07-19T23:09:26.163Z,19.50
2018-07-19T23:11:53.710Z,19.40
2018-07-19T23:14:21.263Z,19.40
2018-07-19T23:16:49.191Z,19.30
2018-07-19T23:19:16.750Z,19.30
2018-07-19T23:21:44.300Z,19.20
2018-07-19T23:24:11.917Z,19.20
2018-07-19T23:26:39.466Z,19.20
2018-07-19T23:29:07.018Z,19.00
2018-07-19T23:31:35.387Z,18.90
2018-07-19T23:34:03.718Z,18.80
2018-07-19T23:36:31.258Z,18.80
2018-07-19T23:38:58.850Z,18.80
2018-07-19T23:41:26.399Z,18.70
2018-07-19T23:43:53.947Z,18.70
2018-07-19T23:46:21.533Z,18.60
2018-07-19T23:48:49.088Z,18.60
2018-07-19T23:51:16.640Z,18.60
2018-07-19T23:53:44.224Z,18.50
2018-07-19T23:56:11.776Z,18.50
2018-07-19T23:58:39.331Z,18.50
